Time;durP1;ratioP1;P1;durP2;ratioP2;P2;SDS_P1;SDS_P2;PMS_P1;PMS_P2;Temp;Humidity;BMP_temperature;BMP_pressure;BME280_temperature;BME280_humidity;BME280_pressure;Samples;Min_cycle;Max_cycle;Signal;HPM_P1;HPM_P2
2021/12/13 00:01:31;;;;;;;10.95;5.55;;;6.20;99.90;;;;;;4947916;28;20027;-77
2021/12/13 00:04:07;;;;;;;9.98;5.15;;;6.20;99.90;;;;;;4945065;28;20019;-78
2021/12/13 00:06:39;;;;;;;11.70;5.85;;;6.20;99.90;;;;;;4946181;28;20495;-76
2021/12/13 00:09:11;;;;;;;9.68;5.70;;;6.20;99.90;;;;;;4946033;28;20027;-76
2021/12/13 00:11:41;;;;;;;10.63;5.22;;;6.20;99.90;;;;;;4951384;28;20127;-75
2021/12/13 00:14:28;;;;;;;9.07;5.10;;;6.20;99.90;;;;;;4940119;28;20061;-75
2021/12/13 00:17:06;;;;;;;12.82;6.60;;;6.20;99.90;;;;;;4937774;28;20023;-78
2021/12/13 00:19:51;;;;;;;9.05;4.90;;;6.20;99.90;;;;;;4945391;28;20062;-75
2021/12/13 00:22:25;;;;;;;9.10;5.45;;;6.20;99.90;;;;;;4949185;28;20110;-77
2021/12/13 00:24:52;;;;;;;11.23;5.90;;;6.20;99.90;;;;;;4945634;28;20070;-75
2021/12/13 00:27:27;;;;;;;9.07;5.40;;;6.20;99.90;;;;;;4944336;28;20035;-78
2021/12/13 00:30:20;;;;;;;12.25;5.80;;;6.10;99.90;;;;;;4949124;28;20027;-77
2021/12/13 00:33:15;;;;;;;9.73;5.30;;;6.10;99.90;;;;;;4950233;28;20463;-76
2021/12/13 00:36:01;;;;;;;11.15;5.93;;;6.10;99.90;;;;;;4944520;28;20056;-77
2021/12/13 00:38:30;;;;;;;7.45;5.13;;;6.10;99.90;;;;;;4945055;28;20031;-77
2021/12/13 00:41:09;;;;;;;11.18;5.85;;;6.10;99.90;;;;;;4944886;28;20039;-77
2021/12/13 00:43:52;;;;;;;9.43;5.88;;;6.10;99.90;;;;;;4949529;28;20031;-77
2021/12/13 00:46:20;;;;;;;9.13;5.35;;;6.10;99.90;;;;;;4935413;28;20035;-77
2021/12/13 00:48:51;;;;;;;11.95;6.05;;;6.10;99.90;;;;;;4943688;28;20031;-77
2021/12/13 00:51:27;;;;;;;9.13;5.97;;;6.10;99.90;;;;;;4941000;28;20131;-77
2021/12/13 00:53:57;;;;;;;13.57;6.00;;;6.20;99.90;;;;;;4946394;28;20099;-77
2021/12/13 00:56:42;;;;;;;9.20;5.30;;;6.20;99.90;;;;;;4948421;28;20407;-77
2021/12/13 00:59:11;;;;;;;10.38;5.78;;;6.20;99.90;;;;;;4947203;28;20023;-77
2021/12/13 01:01:37;;;;;;;9.20;5.45;;;6.20;99.90;;;;;;4944763;28;20090;-77
2021/12/13 01:04:12;;;;;;;8.52;5.40;;;6.20;99.90;;;;;;4948907;28;20492;-77
2021/12/13 01:07:15;;;;;;;8.32;5.45;;;6.20;99.90;;;;;;4940277;28;20029;-77
2021/12/13 01:09:56;;;;;;;10.98;4.85;;;6.20;99.90;;;;;;4943334;28;20424;-78
2021/12/13 01:12:23;;;;;;;11.43;6.53;;;6.20;99.90;;;;;;4941663;28;20027;-79
2021/12/13 01:15:04;;;;;;;8.32;5.05;;;6.20;99.90;;;;;;4946519;28;20164;-78
2021/12/13 01:20:31;;;;;;;9.43;5.85;;;6.20;99.90;;;;;;4945902;28;20499;-78
2021/12/13 01:23:04;;;;;;;10.93;5.40;;;6.20;99.90;;;;;;4947720;28;20022;-78
2021/12/13 01:25:42;;;;;;;8.32;4.95;;;6.20;99.90;;;;;;4946584;28;20039;-78
2021/12/13 01:28:32;;;;;;;7.93;5.05;;;6.20;99.90;;;;;;4965595;28;20444;-78
2021/12/13 01:31:12;;;;;;;9.82;4.60;;;6.20;99.90;;;;;;4950480;28;20066;-77
2021/12/13 01:33:44;;;;;;;6.95;4.47;;;6.20;99.90;;;;;;4950241;28;20414;-77
2021/12/13 01:36:12;;;;;;;12.32;5.50;;;6.20;99.90;;;;;;4944570;28;20023;-78
2021/12/13 01:38:45;;;;;;;8.23;5.07;;;6.20;99.90;;;;;;4945038;28;20030;-78
2021/12/13 01:41:29;;;;;;;10.43;5.30;;;6.20;99.90;;;;;;4944462;28;20400;-77
2021/12/13 01:43:57;;;;;;;;;;;6.20;99.90;;;;;;4944090;28;20122;-77
2021/12/13 01:46:24;;;;;;;14.25;4.95;;;6.20;99.90;;;;;;4943073;28;19997;-77
2021/12/13 01:48:52;;;;;;;9.18;5.22;;;6.20;99.90;;;;;;4948341;28;20035;-77
2021/12/13 01:51:23;;;;;;;13.93;6.65;;;6.20;99.90;;;;;;4941296;28;20035;-76
2021/12/13 01:54:08;;;;;;;8.43;5.05;;;6.20;99.90;;;;;;4947433;28;20569;-77
2021/12/13 01:58:18;;;;;;;9.05;5.05;;;6.20;99.90;;;;;;4944505;28;20027;-77
2021/12/13 02:00:08;;;;;;;14.82;5.63;;;6.20;99.90;;;;;;4930598;28;20435;-77
2021/12/13 02:02:41;;;;;;;10.15;5.35;;;6.10;99.90;;;;;;4942887;28;20373;-77
2021/12/13 02:05:20;;;;;;;10.82;6.45;;;6.10;99.90;;;;;;4946264;28;20110;-77
2021/12/13 02:07:55;;;;;;;11.63;8.00;;;6.10;99.90;;;;;;4947770;28;20126;-77
2021/12/13 02:10:34;;;;;;;15.75;7.35;;;6.00;99.90;;;;;;4960102;28;20063;-77
2021/12/13 02:13:09;;;;;;;9.63;6.60;;;6.00;99.90;;;;;;4940283;28;20043;-77
2021/12/13 02:18:28;;;;;;;9.52;6.25;;;5.90;99.90;;;;;;4947255;28;20428;-77
2021/12/13 02:21:06;;;;;;;10.50;6.30;;;5.90;99.90;;;;;;4946912;28;20037;-77
2021/12/13 02:23:35;;;;;;;11.57;6.57;;;5.90;99.90;;;;;;4945042;28;20020;-77
2021/12/13 02:26:02;;;;;;;12.15;6.43;;;5.90;99.90;;;;;;4943534;28;20028;-77
2021/12/13 02:28:33;;;;;;;10.35;5.70;;;5.90;99.90;;;;;;4947121;28;20015;-78
2021/12/13 02:31:04;;;;;;;11.75;7.10;;;5.90;99.90;;;;;;4947245;28;20046;-77
2021/12/13 02:33:38;;;;;;;12.60;6.30;;;5.90;99.90;;;;;;4938213;28;20027;-77
2021/12/13 02:36:06;;;;;;;11.52;6.25;;;5.90;99.90;;;;;;4942763;28;20103;-77
2021/12/13 02:38:33;;;;;;;11.70;7.20;;;5.90;99.90;;;;;;4944177;28;20027;-77
2021/12/13 02:40:59;;;;;;;10.27;6.57;;;5.90;99.90;;;;;;4947076;28;20154;-77
2021/12/13 02:43:34;;;;;;;13.57;7.07;;;5.90;99.90;;;;;;4945671;28;20031;-77
2021/12/13 02:46:01;;;;;;;10.63;5.95;;;5.90;99.90;;;;;;4939688;28;20080;-78
2021/12/13 02:48:32;;;;;;;10.82;6.22;;;5.80;99.90;;;;;;4939827;28;20815;-77
2021/12/13 02:51:01;;;;;;;10.02;5.88;;;5.80;99.90;;;;;;4943608;28;20047;-78
2021/12/13 02:53:33;;;;;;;12.23;6.70;;;5.80;99.90;;;;;;4942631;28;20075;-77
2021/12/13 02:56:00;;;;;;;9.82;6.07;;;5.80;99.90;;;;;;4941763;28;20115;-77
2021/12/13 02:58:29;;;;;;;12.35;5.75;;;5.80;99.90;;;;;;4944078;28;20023;-77
2021/12/13 03:01:02;;;;;;;14.40;6.65;;;5.80;99.90;;;;;;4938581;28;20479;-77
2021/12/13 03:03:32;;;;;;;10.67;6.43;;;5.80;99.90;;;;;;4963390;28;21842;-77
2021/12/13 03:06:01;;;;;;;10.27;6.18;;;5.80;99.90;;;;;;4943666;28;20039;-76
2021/12/13 03:08:33;;;;;;;15.50;7.32;;;5.70;99.90;;;;;;4946028;28;20078;-78
2021/12/13 03:11:07;;;;;;;13.48;6.47;;;5.70;99.90;;;;;;4948660;28;20420;-77
2021/12/13 03:13:33;;;;;;;;;;;5.80;99.90;;;;;;4943206;28;20031;-77
2021/12/13 03:16:17;;;;;;;14.02;6.63;;;5.80;99.90;;;;;;4954700;28;19960;-77
2021/12/13 03:18:54;;;;;;;12.23;6.43;;;5.80;99.90;;;;;;4950762;28;20034;-77
2021/12/13 03:21:20;;;;;;;17.23;7.45;;;5.80;99.90;;;;;;4948575;28;20035;-78
2021/12/13 03:24:08;;;;;;;16.40;7.35;;;5.80;99.90;;;;;;4948851;28;20443;-78
2021/12/13 03:27:09;;;;;;;14.52;8.27;;;5.80;99.90;;;;;;4943948;28;20044;-78
2021/12/13 03:29:38;;;;;;;12.95;6.97;;;5.80;99.90;;;;;;4942300;28;20046;-78
2021/12/13 03:32:10;;;;;;;10.18;6.45;;;5.80;99.90;;;;;;4964001;28;20495;-77
2021/12/13 03:34:36;;;;;;;12.27;7.05;;;5.80;99.90;;;;;;4947362;28;20024;-78
2021/12/13 03:37:19;;;;;;;11.52;7.75;;;5.80;99.90;;;;;;4943973;28;20054;-77
2021/12/13 03:39:49;;;;;;;12.77;7.68;;;5.80;99.90;;;;;;4942288;28;20035;-78
2021/12/13 03:42:23;;;;;;;18.30;7.75;;;5.80;99.90;;;;;;4944343;28;20598;-77
2021/12/13 03:44:53;;;;;;;15.15;7.75;;;5.80;99.90;;;;;;4962380;28;20475;-75
2021/12/13 03:47:34;;;;;;;13.60;7.10;;;5.80;99.90;;;;;;4947121;28;20043;-76
2021/12/13 03:50:06;;;;;;;16.23;7.35;;;5.80;99.90;;;;;;4944959;28;20031;-77
2021/12/13 03:52:32;;;;;;;13.55;7.22;;;5.80;99.90;;;;;;4945623;28;20031;-77
2021/12/13 03:55:01;;;;;;;13.45;6.70;;;5.80;99.90;;;;;;4944704;28;20518;-77
2021/12/13 03:57:28;;;;;;;13.05;7.07;;;5.80;99.90;;;;;;4946399;28;20023;-77
2021/12/13 03:59:54;;;;;;;11.68;6.75;;;5.80;99.90;;;;;;4946439;28;20023;-77
2021/12/13 04:02:31;;;;;;;14.40;7.40;;;5.80;99.90;;;;;;4948354;28;21238;-78
2021/12/13 04:05:08;;;;;;;13.18;7.43;;;5.80;99.90;;;;;;4942505;28;20086;-77
2021/12/13 04:07:44;;;;;;;12.18;6.47;;;5.80;99.90;;;;;;4948660;28;20136;-77
2021/12/13 04:10:18;;;;;;;13.48;6.10;;;5.90;99.90;;;;;;4949555;28;20023;-78
2021/12/13 04:12:48;;;;;;;;;;;5.80;99.90;;;;;;4951093;28;20023;-78
2021/12/13 04:15:14;;;;;;;10.07;5.25;;;5.90;99.90;;;;;;4944775;28;19914;-76
2021/12/13 04:17:45;;;;;;;11.98;5.63;;;5.90;99.90;;;;;;4949334;28;20031;-78
2021/12/13 04:20:19;;;;;;;10.98;6.05;;;5.90;99.90;;;;;;4947571;28;20031;-76
2021/12/13 04:22:53;;;;;;;;;;;5.80;99.90;;;;;;4948735;28;20079;-75
2021/12/13 04:25:31;;;;;;;10.82;5.65;;;5.90;99.90;;;;;;4944282;28;19973;-75
2021/12/13 04:28:03;;;;;;;12.38;6.00;;;5.80;99.90;;;;;;4934168;28;20020;-75
2021/12/13 04:30:40;;;;;;;16.38;6.93;;;5.80;99.90;;;;;;4961172;28;20047;-78
2021/12/13 04:33:18;;;;;;;10.15;5.38;;;5.80;99.90;;;;;;4948278;28;20027;-77
2021/12/13 04:35:52;;;;;;;14.52;6.25;;;5.80;99.90;;;;;;4945682;28;20023;-77
2021/12/13 04:38:23;;;;;;;13.50;7.45;;;5.80;99.90;;;;;;4945742;28;20114;-77
2021/12/13 04:40:52;;;;;;;13.95;7.43;;;5.80;99.90;;;;;;4946106;28;20038;-77
2021/12/13 04:43:19;;;;;;;15.50;7.97;;;5.90;99.90;;;;;;4939156;28;20480;-77
2021/12/13 04:45:55;;;;;;;15.15;8.98;;;5.90;99.90;;;;;;4944187;28;20484;-77
2021/12/13 04:48:26;;;;;;;15.15;9.30;;;5.90;99.90;;;;;;4947908;28;20023;-77
2021/12/13 04:50:57;;;;;;;14.43;9.15;;;5.90;99.90;;;;;;4947185;28;20038;-78
2021/12/13 04:53:26;;;;;;;20.17;12.45;;;5.90;99.90;;;;;;4944708;28;20031;-77
2021/12/13 04:55:54;;;;;;;19.70;10.23;;;5.90;99.90;;;;;;4946764;28;20023;-77
2021/12/13 04:58:21;;;;;;;21.70;10.07;;;6.00;99.90;;;;;;4938245;28;20099;-78
2021/12/13 05:00:52;;;;;;;15.38;9.68;;;6.00;99.90;;;;;;4943993;28;20039;-78
2021/12/13 05:03:22;;;;;;;17.98;9.73;;;6.00;99.90;;;;;;4961629;28;20024;-77
2021/12/13 05:05:48;;;;;;;18.27;10.70;;;6.00;99.90;;;;;;4945352;28;20031;-77
2021/12/13 05:08:16;;;;;;;17.58;10.00;;;6.00;99.90;;;;;;4947259;28;20416;-77
2021/12/13 05:10:46;;;;;;;19.48;10.73;;;6.00;99.90;;;;;;4947052;28;20404;-77
2021/12/13 05:13:26;;;;;;;16.77;10.40;;;6.00;99.90;;;;;;4939104;28;20031;-77
2021/12/13 05:16:25;;;;;;;21.85;10.63;;;6.00;99.90;;;;;;4944050;28;20070;-77
2021/12/13 05:18:54;;;;;;;22.75;11.38;;;6.00;99.90;;;;;;4942914;28;20491;-77
2021/12/13 05:21:34;;;;;;;17.75;9.63;;;5.90;99.90;;;;;;4941548;28;20131;-77
2021/12/13 05:24:02;;;;;;;17.17;8.05;;;5.90;99.90;;;;;;4947107;28;20500;-77
2021/12/13 05:26:43;;;;;;;18.80;10.32;;;5.90;99.90;;;;;;4946347;28;20574;-77
2021/12/13 05:29:34;;;;;;;19.73;11.40;;;5.90;99.90;;;;;;4944584;28;20031;-77
2021/12/13 05:32:18;;;;;;;17.80;10.68;;;5.90;99.90;;;;;;4941112;28;20040;-77
2021/12/13 05:34:46;;;;;;;20.42;11.00;;;5.80;99.90;;;;;;4946904;28;20717;-77
2021/12/13 05:37:12;;;;;;;20.38;12.25;;;5.80;99.90;;;;;;4942256;28;20071;-77
2021/12/13 05:40:00;;;;;;;22.30;12.07;;;5.70;99.90;;;;;;4942082;28;20042;-77
2021/12/13 05:42:40;;;;;;;13.90;7.30;;;5.60;99.90;;;;;;4936451;28;20027;-78
2021/12/13 05:45:10;;;;;;;15.13;7.43;;;5.60;99.90;;;;;;4939360;28;20035;-78
2021/12/13 05:47:36;;;;;;;13.48;7.85;;;5.60;99.90;;;;;;4942672;28;20027;-81
2021/12/13 05:50:05;;;;;;;18.92;8.02;;;5.60;99.90;;;;;;4940670;28;20034;-77
2021/12/13 05:52:36;;;;;;;14.68;7.90;;;5.60;99.90;;;;;;4942411;28;20031;-75
2021/12/13 05:55:10;;;;;;;22.08;10.15;;;5.60;99.90;;;;;;4941440;28;20424;-74
2021/12/13 05:57:41;;;;;;;17.25;8.98;;;5.60;99.90;;;;;;4945387;28;20365;-77
2021/12/13 06:00:16;;;;;;;17.92;8.63;;;5.70;99.90;;;;;;4947262;28;20479;-77
2021/12/13 06:03:01;;;;;;;15.63;7.55;;;5.70;99.90;;;;;;4948155;28;20373;-76
2021/12/13 06:05:41;;;;;;;15.63;7.82;;;5.70;99.90;;;;;;4948242;28;20416;-76
2021/12/13 06:08:20;;;;;;;14.40;7.72;;;5.70;99.90;;;;;;4946685;28;20513;-75
2021/12/13 06:10:46;;;;;;;17.42;8.82;;;5.70;99.90;;;;;;4945971;28;20671;-75
2021/12/13 06:13:23;;;;;;;17.25;9.10;;;5.80;99.90;;;;;;4937733;28;20532;-77
2021/12/13 06:15:50;;;;;;;18.15;8.43;;;5.80;99.90;;;;;;4946301;28;20036;-76
2021/12/13 06:18:29;;;;;;;15.93;7.90;;;5.70;99.90;;;;;;4941115;28;20034;-79
2021/12/13 06:21:02;;;;;;;14.30;8.25;;;5.80;99.90;;;;;;4944684;28;20030;-77
2021/12/13 06:23:30;;;;;;;15.63;8.88;;;5.80;99.90;;;;;;4941216;28;20657;-78
2021/12/13 06:26:04;;;;;;;17.98;9.05;;;5.80;99.90;;;;;;4941265;28;20031;-78
2021/12/13 06:28:37;;;;;;;;;;;5.80;99.90;;;;;;4942551;28;20044;-75
2021/12/13 06:31:10;;;;;;;14.48;8.38;;;5.90;99.90;;;;;;4936842;28;19911;-74
2021/12/13 06:34:01;;;;;;;16.77;7.97;;;5.90;99.90;;;;;;4934504;28;20034;-78
2021/12/13 06:36:33;;;;;;;12.27;7.45;;;5.90;99.90;;;;;;4943443;28;20039;-78
2021/12/13 06:39:04;;;;;;;15.63;8.38;;;5.90;99.90;;;;;;4935637;28;20523;-76
2021/12/13 06:41:34;;;;;;;18.80;9.10;;;5.80;99.90;;;;;;4939757;28;20491;-78
2021/12/13 06:44:24;;;;;;;15.27;7.78;;;5.90;99.90;;;;;;4940347;28;20039;-75
2021/12/13 06:46:52;;;;;;;15.68;8.18;;;5.90;99.90;;;;;;4894687;28;20143;-75
2021/12/13 06:49:25;;;;;;;13.60;7.90;;;5.80;99.90;;;;;;4918052;29;20031;-75
2021/12/13 06:52:03;;;;;;;15.98;7.55;;;5.90;99.90;;;;;;4918753;29;20119;-75
2021/12/13 06:54:45;;;;;;;18.98;9.25;;;5.90;99.90;;;;;;4935955;28;20036;-76
2021/12/13 06:57:23;;;;;;;14.35;8.07;;;5.90;99.90;;;;;;4917794;29;20024;-75
2021/12/13 07:00:09;;;;;;;18.25;9.90;;;5.90;99.90;;;;;;4919300;29;20019;-76
2021/12/13 07:02:46;;;;;;;21.98;11.48;;;5.90;99.90;;;;;;4938233;28;22588;-75
2021/12/13 07:05:19;;;;;;;24.38;12.00;;;5.90;99.90;;;;;;4927852;29;20063;-75
2021/12/13 07:08:06;;;;;;;;;;;5.90;99.90;;;;;;4935906;28;20650;-74
2021/12/13 07:10:56;;;;;;;24.20;11.30;;;5.90;99.90;;;;;;4925601;29;19938;-75
2021/12/13 07:13:30;;;;;;;23.48;11.38;;;5.90;99.90;;;;;;4923684;29;20050;-75
2021/12/13 07:16:07;;;;;;;23.13;11.05;;;5.90;99.90;;;;;;4937866;28;20031;-74
2021/12/13 07:18:52;;;;;;;19.42;10.65;;;6.00;99.90;;;;;;4917148;29;20043;-75
2021/12/13 07:21:20;;;;;;;18.67;10.55;;;5.90;99.90;;;;;;4933850;28;20481;-74
2021/12/13 07:24:03;;;;;;;21.58;11.90;;;6.00;99.90;;;;;;4920736;28;21159;-74
2021/12/13 07:26:38;;;;;;;24.75;11.20;;;5.90;99.90;;;;;;4918447;29;20122;-75
2021/12/13 07:29:19;;;;;;;21.25;11.15;;;5.90;99.90;;;;;;4921123;29;20035;-75
2021/12/13 07:32:01;;;;;;;24.48;11.02;;;5.90;99.90;;;;;;4919879;29;20098;-77
2021/12/13 07:34:27;;;;;;;19.30;8.57;;;6.00;99.90;;;;;;4918715;28;20051;-77
2021/12/13 07:37:01;;;;;;;20.17;10.18;;;5.90;99.90;;;;;;4925637;29;20028;-76
2021/12/13 07:39:31;;;;;;;13.93;8.05;;;5.90;99.90;;;;;;4930755;28;20031;-77
2021/12/13 07:42:06;;;;;;;16.98;8.98;;;5.90;99.90;;;;;;4924720;28;20036;-73
2021/12/13 07:44:31;;;;;;;18.00;9.85;;;5.90;99.90;;;;;;4927159;29;20038;-76
2021/12/13 07:47:20;;;;;;;20.67;9.25;;;6.00;99.90;;;;;;4922543;29;20031;-74
2021/12/13 07:49:50;;;;;;;17.52;8.88;;;5.90;99.90;;;;;;4920239;29;20070;-75
2021/12/13 07:52:24;;;;;;;16.98;9.05;;;6.00;99.90;;;;;;4925934;29;20031;-74
2021/12/13 07:54:50;;;;;;;18.02;9.85;;;6.00;99.90;;;;;;4922332;29;20032;-75
2021/12/13 07:57:28;;;;;;;19.25;10.00;;;6.00;99.90;;;;;;4917481;29;20032;-75
2021/12/13 07:59:55;;;;;;;22.20;10.43;;;6.00;99.90;;;;;;4931084;28;20038;-74
2021/12/13 08:02:30;;;;;;;24.00;11.07;;;6.00;99.90;;;;;;4932057;28;20035;-75
2021/12/13 08:05:11;;;;;;;23.55;10.55;;;6.00;99.90;;;;;;4924839;29;20106;-75
2021/12/13 08:07:54;;;;;;;19.45;9.65;;;6.00;99.90;;;;;;4926276;29;20137;-75
2021/12/13 08:10:31;;;;;;;25.13;10.82;;;6.00;99.90;;;;;;4944684;23;20539;-79
2021/12/13 08:13:19;;;;;;;24.98;11.88;;;6.00;99.90;;;;;;4950314;28;20598;-79
2021/12/13 08:15:52;;;;;;;26.92;11.10;;;6.10;99.90;;;;;;4947785;28;20415;-78
2021/12/13 08:18:27;;;;;;;16.47;8.07;;;6.20;99.90;;;;;;4947150;28;20032;-79
2021/12/13 08:20:58;;;;;;;16.63;6.80;;;6.20;99.90;;;;;;4939627;28;20337;-78
2021/12/13 08:23:38;;;;;;;13.00;6.28;;;6.30;99.90;;;;;;4924892;29;20110;-78
2021/12/13 08:26:09;;;;;;;10.05;5.82;;;6.30;99.90;;;;;;4938058;28;20039;-77
2021/12/13 08:28:48;;;;;;;11.55;5.05;;;6.30;99.90;;;;;;4927780;29;20034;-78
2021/12/13 08:31:29;;;;;;;9.20;5.80;;;6.40;99.90;;;;;;4934560;29;20067;-78
2021/12/13 08:33:59;;;;;;;9.85;4.95;;;6.40;99.90;;;;;;4929795;29;20051;-79
2021/12/13 08:36:24;;;;;;;12.98;5.88;;;6.40;99.90;;;;;;4922788;29;20084;-79
2021/12/13 08:39:01;;;;;;;12.73;6.03;;;6.50;99.90;;;;;;4925166;29;20523;-79
2021/12/13 08:41:55;;;;;;;19.00;9.35;;;6.50;99.90;;;;;;4927537;29;20658;-78
2021/12/13 08:44:29;;;;;;;19.17;9.07;;;6.60;99.90;;;;;;4928412;29;20024;-79
2021/12/13 08:47:04;;;;;;;20.33;9.75;;;6.60;99.90;;;;;;4928660;28;20039;-79
2021/12/13 08:49:29;;;;;;;20.23;9.98;;;6.60;99.90;;;;;;4923249;29;20032;-79
2021/12/13 08:52:14;;;;;;;17.23;10.48;;;6.70;99.90;;;;;;4930094;29;20101;-79
2021/12/13 08:55:01;;;;;;;21.90;11.52;;;6.70;99.90;;;;;;4936627;28;20035;-79
2021/12/13 08:57:29;;;;;;;27.73;12.18;;;6.70;99.90;;;;;;4945555;28;20024;-81
2021/12/13 08:59:56;;;;;;;24.90;12.13;;;6.70;99.90;;;;;;4946577;28;20114;-80
2021/12/13 09:02:28;;;;;;;24.92;14.00;;;6.70;99.90;;;;;;4933853;29;20032;-81
2021/12/13 09:05:13;;;;;;;24.20;13.68;;;6.70;99.90;;;;;;4928743;29;20433;-77
2021/12/13 09:07:57;;;;;;;23.48;12.85;;;6.80;99.90;;;;;;4917967;29;20046;-80
2021/12/13 09:10:46;;;;;;;19.67;12.95;;;6.80;99.90;;;;;;4879765;29;1130688;-79
2021/12/13 09:13:15;;;;;;;23.33;14.50;;;6.80;99.90;;;;;;4941295;28;20024;-80
2021/12/13 09:15:43;;;;;;;23.80;13.40;;;6.80;99.90;;;;;;4926629;29;20031;-80
2021/12/13 09:18:09;;;;;;;26.02;12.40;;;6.90;99.90;;;;;;4947032;28;20028;-80
2021/12/13 09:20:44;;;;;;;22.38;12.63;;;6.90;99.90;;;;;;4930789;29;20558;-80
2021/12/13 09:23:27;;;;;;;25.70;13.85;;;7.00;99.90;;;;;;4930178;28;20047;-80
2021/12/13 09:26:04;;;;;;;23.40;11.68;;;7.10;99.90;;;;;;4933146;29;20050;-80
2021/12/13 09:28:56;;;;;;;25.83;14.02;;;7.10;99.90;;;;;;4931861;29;20035;-80
2021/12/13 09:31:27;;;;;;;25.77;13.00;;;7.20;99.90;;;;;;4930879;29;20039;-80
2021/12/13 09:33:58;;;;;;;22.40;11.43;;;7.30;99.90;;;;;;4931656;29;20386;-80
2021/12/13 09:36:35;;;;;;;24.00;13.30;;;7.30;99.90;;;;;;4931546;29;20381;-80
2021/12/13 09:39:17;;;;;;;22.27;12.57;;;7.30;99.90;;;;;;4929711;29;20115;-80
2021/12/13 09:41:52;;;;;;;18.42;10.98;;;7.30;99.90;;;;;;4930455;29;20028;-80
2021/12/13 09:44:31;;;;;;;18.25;10.80;;;7.30;99.90;;;;;;4926101;29;20043;-81
2021/12/13 09:47:03;;;;;;;18.33;11.38;;;7.30;99.90;;;;;;4932226;29;20032;-80
2021/12/13 09:49:34;;;;;;;17.02;10.10;;;7.30;99.90;;;;;;4931765;29;20544;-80
2021/12/13 09:52:11;;;;;;;16.65;10.50;;;7.30;99.90;;;;;;4932573;29;20067;-80
2021/12/13 09:54:43;;;;;;;18.80;10.63;;;7.30;99.90;;;;;;4934452;29;20075;-80
2021/12/13 09:57:16;;;;;;;21.70;11.35;;;7.30;99.90;;;;;;4928783;29;20083;-80
2021/12/13 09:59:51;;;;;;;18.42;10.40;;;7.30;99.90;;;;;;4932064;29;20079;-80
2021/12/13 10:02:28;;;;;;;23.73;12.43;;;7.20;99.90;;;;;;4930125;29;20110;-80
2021/12/13 10:04:54;;;;;;;22.55;11.20;;;7.10;99.90;;;;;;4933701;29;20543;-80
2021/12/13 10:07:27;;;;;;;19.45;10.23;;;7.10;99.90;;;;;;4930245;29;20115;-80
2021/12/13 10:09:58;;;;;;;19.40;9.68;;;7.20;99.90;;;;;;4925204;29;20087;-80
2021/12/13 10:12:28;;;;;;;17.38;9.40;;;7.20;99.90;;;;;;4930848;29;20023;-80
2021/12/13 10:15:05;;;;;;;17.83;8.60;;;7.20;99.90;;;;;;4928679;29;20024;-80
2021/12/13 10:17:34;;;;;;;14.57;8.77;;;7.30;99.90;;;;;;4930744;29;20028;-80
2021/12/13 10:20:07;;;;;;;17.67;9.88;;;7.30;99.90;;;;;;4931158;29;20507;-80
2021/12/13 10:22:34;;;;;;;15.57;9.35;;;7.40;99.90;;;;;;4932166;29;20028;-80
2021/12/13 10:25:08;;;;;;;21.45;11.20;;;7.50;99.90;;;;;;4931375;29;20031;-80
2021/12/13 10:27:34;;;;;;;20.90;12.65;;;7.40;99.90;;;;;;4932219;29;20032;-80
2021/12/13 10:30:05;;;;;;;23.35;11.93;;;7.40;99.90;;;;;;4931685;29;20110;-80
2021/12/13 10:32:36;;;;;;;26.90;12.63;;;7.40;99.90;;;;;;4928367;29;20056;-79
2021/12/13 10:35:08;;;;;;;24.75;13.30;;;7.40;99.90;;;;;;4932729;29;20104;-80
2021/12/13 10:37:36;;;;;;;22.08;12.82;;;7.40;99.90;;;;;;4931608;29;20421;-80
2021/12/13 10:40:09;;;;;;;23.98;11.88;;;7.50;99.90;;;;;;4932566;29;20106;-80
2021/12/13 10:42:43;;;;;;;24.92;12.27;;;7.40;99.90;;;;;;4933886;29;20551;-80
2021/12/13 10:45:16;;;;;;;25.90;13.43;;;7.40;99.90;;;;;;4923230;29;20243;-80
2021/12/13 10:47:46;;;;;;;20.67;11.00;;;7.40;99.90;;;;;;4934606;29;20103;-80
2021/12/13 10:50:17;;;;;;;21.73;11.18;;;7.50;99.90;;;;;;4933888;29;20036;-80
2021/12/13 10:52:48;;;;;;;24.55;12.20;;;7.50;99.90;;;;;;4931843;29;20023;-80
2021/12/13 10:55:33;;;;;;;19.95;11.40;;;7.70;99.90;;;;;;4931127;29;20412;-80
2021/12/13 10:57:59;;;;;;;20.30;11.05;;;7.80;99.90;;;;;;4931350;29;20032;-80
2021/12/13 11:00:30;;;;;;;19.98;11.38;;;7.90;99.90;;;;;;4932225;29;20028;-80
2021/12/13 11:03:17;;;;;;;23.52;11.38;;;7.90;99.90;;;;;;4932761;29;20059;-80
2021/12/13 11:05:44;;;;;;;22.45;11.20;;;7.80;99.90;;;;;;4927138;29;20038;-80
2021/12/13 11:08:12;;;;;;;22.90;11.77;;;7.80;99.90;;;;;;4930810;29;20031;-80
2021/12/13 11:11:17;;;;;;;20.38;10.65;;;7.80;99.90;;;;;;4929197;29;20032;-80
2021/12/13 11:13:43;;;;;;;;;;;7.90;99.90;;;;;;4921379;28;20040;-80
2021/12/13 11:16:25;;;;;;;16.48;8.82;;;8.00;99.90;;;;;;4925122;29;19921;-79
2021/12/13 11:18:51;;;;;;;21.80;11.35;;;8.00;99.90;;;;;;4941121;28;20564;-80
2021/12/13 11:21:24;;;;;;;19.75;11.43;;;8.00;99.90;;;;;;4927894;29;20028;-80
2021/12/13 11:23:49;;;;;;;17.02;9.75;;;8.10;99.90;;;;;;4923572;29;20056;-80
2021/12/13 11:26:20;;;;;;;17.52;9.43;;;8.10;99.90;;;;;;4925241;29;20066;-81
2021/12/13 11:28:46;;;;;;;18.00;10.93;;;8.10;99.90;;;;;;4929679;29;20062;-80
2021/12/13 11:31:29;;;;;;;18.55;9.75;;;8.10;99.90;;;;;;4928732;29;20024;-80
2021/12/13 11:34:04;;;;;;;15.93;8.55;;;8.10;99.90;;;;;;4928848;29;20489;-78
2021/12/13 11:36:39;;;;;;;16.17;10.20;;;8.10;99.90;;;;;;4934709;29;20062;-78
2021/12/13 11:39:42;;;;;;;14.82;9.30;;;8.10;99.90;;;;;;4920751;29;20481;-78
2021/12/13 11:42:45;;;;;;;15.40;9.27;;;8.20;99.90;;;;;;4932081;29;20538;-78
2021/12/13 11:45:49;;;;;;;13.88;8.20;;;8.20;99.90;;;;;;4931724;29;20961;-79
2021/12/13 11:48:49;;;;;;;13.82;8.25;;;8.20;99.90;;;;;;4930155;29;20046;-79
2021/12/13 11:51:37;;;;;;;14.18;8.50;;;8.30;99.90;;;;;;4932059;29;20511;-78
2021/12/13 11:54:17;;;;;;;15.13;7.80;;;8.30;99.90;;;;;;4930366;29;20035;-80
2021/12/13 11:57:18;;;;;;;11.15;7.50;;;8.30;99.90;;;;;;4925675;29;20508;-80
2021/12/13 12:00:15;;;;;;;17.83;8.88;;;8.40;99.90;;;;;;4933401;29;20023;-79
2021/12/13 12:03:20;;;;;;;14.90;8.23;;;8.40;99.90;;;;;;4952405;28;20455;-80
2021/12/13 12:06:31;;;;;;;15.60;8.68;;;8.50;99.90;;;;;;4931575;29;21048;-80
2021/12/13 12:09:35;;;;;;;14.20;9.13;;;8.60;99.90;;;;;;4922948;29;20066;-80
2021/12/13 12:12:33;;;;;;;14.80;8.85;;;8.60;99.90;;;;;;4928291;29;20559;-81
2021/12/13 12:15:01;;;;;;;19.23;10.07;;;8.60;99.90;;;;;;4934628;29;20028;-82
2021/12/13 12:17:32;;;;;;;15.05;9.20;;;8.60;99.90;;;;;;4933913;29;20109;-82
2021/12/13 12:19:59;;;;;;;19.20;10.15;;;8.60;99.90;;;;;;4934143;29;20031;-82
2021/12/13 12:22:49;;;;;;;18.75;10.15;;;8.60;99.90;;;;;;4935648;29;20035;-83
2021/12/13 12:25:16;;;;;;;14.65;9.65;;;8.50;99.90;;;;;;4942534;28;20501;-82
2021/12/13 12:27:42;;;;;;;14.48;9.00;;;8.50;99.90;;;;;;4936600;29;20035;-81
2021/12/13 12:30:18;;;;;;;16.00;10.75;;;8.50;99.90;;;;;;4931696;29;20027;-83
2021/12/13 12:32:51;;;;;;;17.50;10.07;;;8.40;99.90;;;;;;4925163;29;20051;-79
2021/12/13 12:35:23;;;;;;;13.07;8.52;;;8.50;99.90;;;;;;4932725;29;20030;-79
2021/12/13 12:37:54;;;;;;;12.52;7.95;;;8.40;99.90;;;;;;4932251;29;20619;-79
2021/12/13 12:40:35;;;;;;;14.52;9.27;;;8.40;99.90;;;;;;4929520;29;20055;-83
2021/12/13 12:43:09;;;;;;;14.07;7.80;;;8.40;99.90;;;;;;4931667;29;20031;-84
2021/12/13 12:45:35;;;;;;;14.73;8.80;;;8.40;99.90;;;;;;4921164;29;20035;-80
2021/12/13 12:48:05;;;;;;;13.20;7.97;;;8.40;99.90;;;;;;4929699;29;20038;-81
2021/12/13 12:50:40;;;;;;;16.77;7.88;;;8.40;99.90;;;;;;4934317;29;20038;-80
2021/12/13 12:53:16;;;;;;;15.00;8.10;;;8.40;99.90;;;;;;4932204;29;20036;-81
2021/12/13 12:56:13;;;;;;;13.13;8.63;;;8.30;99.90;;;;;;4933808;29;20020;-81
2021/12/13 12:59:04;;;;;;;16.58;8.13;;;8.30;99.90;;;;;;4933556;29;20039;-81
2021/12/13 13:01:35;;;;;;;13.77;8.07;;;8.30;99.90;;;;;;4933870;29;20038;-80
2021/12/13 13:04:09;;;;;;;12.35;7.45;;;8.30;99.90;;;;;;4931247;29;20131;-81
2021/12/13 13:06:36;;;;;;;13.77;7.80;;;8.20;99.90;;;;;;4935079;29;20145;-81
2021/12/13 13:09:09;;;;;;;11.65;7.15;;;8.20;99.90;;;;;;4933240;29;20137;-81
2021/12/13 13:11:35;;;;;;;11.90;7.43;;;8.10;99.90;;;;;;4930510;29;20034;-81
2021/12/13 13:14:13;;;;;;;9.63;5.57;;;8.20;99.90;;;;;;4929736;29;20054;-81
2021/12/13 13:16:52;;;;;;;9.40;5.80;;;8.20;99.90;;;;;;4932286;29;20047;-82
2021/12/13 13:19:28;;;;;;;11.07;6.18;;;8.20;99.90;;;;;;4949595;28;20028;-81
2021/12/13 13:21:58;;;;;;;11.40;6.20;;;8.20;99.90;;;;;;4928813;29;20027;-81
2021/12/13 13:24:24;;;;;;;11.32;6.68;;;8.20;99.90;;;;;;4934939;29;20031;-81
2021/12/13 13:26:50;;;;;;;11.43;6.40;;;8.10;99.90;;;;;;4932687;29;20027;-81
2021/12/13 13:29:18;;;;;;;10.65;6.57;;;8.20;99.90;;;;;;4931703;29;20027;-81
2021/12/13 13:31:51;;;;;;;10.95;7.25;;;8.20;99.90;;;;;;4932877;29;20057;-81
2021/12/13 13:34:43;;;;;;;11.52;6.45;;;8.10;99.90;;;;;;4931294;29;20384;-82
2021/12/13 13:37:37;;;;;;;12.57;7.20;;;8.10;99.90;;;;;;4928614;29;20039;-81